Time;durP1;ratioP1;P1;durP2;ratioP2;P2;SDS_P1;SDS_P2;PMS_P1;PMS_P2;Temp;Humidity;BMP_temperature;BMP_pressure;BME280_temperature;BME280_humidity;BME280_pressure;Samples;Min_cycle;Max_cycle;Signal;HPM_P1;HPM_P2
2022/02/05 00:02:08;;;;;;;5.35;1.30;;;5.40;99.90;;;;;;5091751;28;20832;-58
2022/02/05 00:04:35;;;;;;;3.90;1.00;;;5.40;99.90;;;;;;5092147;28;20465;-56
2022/02/05 00:07:02;;;;;;;3.87;1.07;;;5.50;99.90;;;;;;5091481;28;20385;-57
2022/02/05 00:39:25;;;;;;;3.90;1.10;;;4.20;99.90;;;;;;5090739;28;20404;-58
2022/02/05 00:41:55;;;;;;;6.50;1.30;;;4.10;99.90;;;;;;5090904;28;20378;-58
2022/02/05 00:44:21;;;;;;;4.40;1.10;;;4.10;99.90;;;;;;5090405;28;20406;-58
2022/02/05 00:46:48;;;;;;;4.80;1.30;;;3.90;99.90;;;;;;5089140;28;20548;-58
2022/02/05 00:49:15;;;;;;;4.07;1.15;;;3.90;99.90;;;;;;5091201;28;20903;-58
2022/02/05 00:51:50;;;;;;;5.90;1.20;;;5.00;99.90;;;;;;5089324;28;20477;-58
2022/02/05 00:54:19;;;;;;;4.00;1.00;;;3.70;99.90;;;;;;5090862;28;20897;-58
2022/02/05 00:59:12;;;;;;;4.93;1.20;;;3.60;99.90;;;;;;5091181;28;20410;-58
2022/02/05 01:01:38;;;;;;;4.93;1.65;;;3.60;99.90;;;;;;5090795;28;20462;-58
2022/02/05 01:04:04;;;;;;;6.17;1.43;;;3.60;99.90;;;;;;5090657;28;20382;-58
2022/02/05 01:06:30;;;;;;;8.68;1.70;;;3.50;99.90;;;;;;5091282;28;20389;-58
2022/02/05 01:08:56;;;;;;;6.25;1.20;;;3.60;99.90;;;;;;5089950;28;20373;-58
2022/02/05 01:11:22;;;;;;;6.30;1.38;;;2.00;99.90;;;;;;5090845;28;20378;-58
2022/02/05 01:13:48;;;;;;;4.33;1.00;;;3.50;99.90;;;;;;5090184;28;20417;-58
2022/02/05 01:18:42;;;;;;;4.90;1.10;;;4.10;99.90;;;;;;5090054;28;20893;-58
2022/02/05 01:21:15;;;;;;;5.60;1.00;;;3.50;99.90;;;;;;5090676;28;20851;-59
2022/02/05 01:26:38;;;;;;;4.15;1.38;;;3.40;99.90;;;;;;5090585;28;20511;-58
2022/02/05 01:29:00;;;;;;;7.05;1.50;;;3.40;99.90;;;;;;5088100;28;20893;-58
2022/02/05 01:31:31;;;;;;;4.20;1.30;;;3.30;99.90;;;;;;5090501;28;20859;-58
2022/02/05 01:34:19;;;;;;;6.60;1.60;;;3.20;99.90;;;;;;5089864;28;20398;-58
2022/02/05 01:50:41;;;;;;;6.32;1.23;;;3.00;99.90;;;;;;5089903;28;20381;-58
2022/02/05 01:53:28;;;;;;;4.55;1.40;;;3.90;99.90;;;;;;5090189;28;20377;-58
2022/02/05 01:58:54;;;;;;;5.30;1.67;;;2.90;99.90;;;;;;5089922;28;20405;-58
2022/02/05 02:30:02;;;;;;;9.60;1.50;;;2.50;99.90;;;;;;5068509;28;20391;-56
2022/02/05 02:32:29;;;;;;;4.60;1.70;;;4.60;99.90;;;;;;5069435;28;20376;-56
2022/02/05 02:35:01;;;;;;;6.25;1.70;;;2.30;99.90;;;;;;5068165;28;20884;-56
2022/02/05 02:37:33;;;;;;;7.13;1.80;;;2.40;99.90;;;;;;5069367;28;20384;-57
2022/02/05 02:43:14;;;;;;;9.20;2.05;;;2.30;99.90;;;;;;5055959;28;20419;-57
2022/02/05 02:45:44;;;;;;;6.47;2.20;;;2.40;99.90;;;;;;5068989;28;20483;-58
2022/02/05 02:48:09;;;;;;;6.57;2.40;;;2.30;99.90;;;;;;5069469;28;20449;-58
2022/02/05 02:58:53;;;;;;;7.00;2.50;;;3.30;99.90;;;;;;5072127;28;20807;-58
2022/02/05 03:01:20;;;;;;;7.20;2.80;;;3.40;99.90;;;;;;5073380;28;20490;-58
2022/02/05 03:03:46;;;;;;;9.00;2.65;;;2.90;99.90;;;;;;5070993;28;20394;-58
2022/02/05 03:06:12;;;;;;;6.68;2.38;;;2.80;99.90;;;;;;5072664;28;20853;-58
2022/02/05 03:08:38;;;;;;;10.07;2.55;;;2.20;99.90;;;;;;5072904;28;20391;-57
2022/02/05 03:11:04;;;;;;;7.45;2.70;;;2.20;99.90;;;;;;5072096;28;20760;-55
2022/02/05 03:13:29;;;;;;;7.88;2.90;;;2.70;99.90;;;;;;5072670;28;20398;-58
2022/02/05 03:15:55;;;;;;;8.70;2.63;;;4.40;99.90;;;;;;5072126;28;20384;-57
2022/02/05 03:18:45;;;;;;;9.07;2.90;;;2.20;99.90;;;;;;5072720;28;20963;-58
2022/02/05 03:21:11;;;;;;;10.35;3.00;;;2.20;99.90;;;;;;5072840;28;20733;-58
2022/02/05 03:23:36;;;;;;;8.48;3.10;;;2.20;99.90;;;;;;5072493;28;20376;-57
2022/02/05 03:26:02;;;;;;;7.73;2.87;;;3.60;99.90;;;;;;5071829;28;20498;-58
2022/02/05 03:28:28;;;;;;;8.20;2.63;;;2.20;99.90;;;;;;5072589;28;20392;-58
2022/02/05 03:30:54;;;;;;;9.83;3.13;;;2.20;99.90;;;;;;5071848;28;20784;-58
2022/02/05 03:33:20;;;;;;;10.45;3.22;;;2.20;99.90;;;;;;5072342;28;20434;-57
2022/02/05 03:35:46;;;;;;;7.20;2.70;;;2.10;99.90;;;;;;5071633;28;20380;-58
2022/02/05 03:38:11;;;;;;;7.83;3.27;;;3.80;99.90;;;;;;5072402;28;20876;-57
2022/02/05 03:40:37;;;;;;;7.28;2.70;;;2.00;99.90;;;;;;5071003;28;20478;-57
2022/02/05 03:43:03;;;;;;;9.00;3.40;;;2.60;99.90;;;;;;5071471;28;20443;-57
2022/02/05 03:45:29;;;;;;;7.93;3.23;;;1.90;99.90;;;;;;5070907;28;20395;-55
2022/02/05 03:47:54;;;;;;;7.30;3.30;;;3.80;99.90;;;;;;5069922;28;20392;-57
2022/02/05 03:50:21;;;;;;;8.10;3.60;;;2.00;99.90;;;;;;5071876;28;20554;-57
2022/02/05 03:52:48;;;;;;;7.53;3.38;;;2.20;99.90;;;;;;5069805;28;20497;-57
2022/02/05 03:55:14;;;;;;;8.85;3.35;;;2.10;99.90;;;;;;5071951;28;20470;-55
2022/02/05 03:57:40;;;;;;;9.02;3.30;;;2.60;99.90;;;;;;5071708;28;20525;-57
2022/02/05 04:00:08;;;;;;;9.00;3.40;;;2.10;99.90;;;;;;5070447;28;20468;-58
2022/02/05 04:02:38;;;;;;;9.63;3.70;;;2.00;99.90;;;;;;5070376;28;20384;-57
2022/02/05 04:05:05;;;;;;;8.73;3.30;;;2.00;99.90;;;;;;5071061;28;20396;-55
2022/02/05 04:07:34;;;;;;;9.50;3.50;;;1.90;99.90;;;;;;5070596;28;20861;-55
2022/02/05 04:10:03;;;;;;;6.63;3.08;;;2.00;99.90;;;;;;5071000;28;20395;-57
2022/02/05 04:17:57;;;;;;;7.77;3.30;;;2.50;99.90;;;;;;5070739;28;20457;-58
2022/02/05 04:20:23;;;;;;;7.60;3.00;;;2.60;99.90;;;;;;5071523;28;20415;-58
2022/02/05 04:22:49;;;;;;;7.10;3.33;;;3.60;99.90;;;;;;5070842;28;20411;-58
2022/02/05 04:25:15;;;;;;;9.88;2.90;;;2.80;99.90;;;;;;5071185;28;20388;-58
2022/02/05 04:27:41;;;;;;;9.13;3.30;;;2.90;99.90;;;;;;5071423;28;20400;-57
2022/02/05 04:30:07;;;;;;;7.22;2.45;;;2.90;99.90;;;;;;5070681;28;20971;-58
2022/02/05 04:32:33;;;;;;;7.15;2.30;;;2.80;99.90;;;;;;5071004;28;20719;-57
2022/02/05 04:34:58;;;;;;;8.10;2.50;;;2.70;99.90;;;;;;5069005;28;20437;-58
2022/02/05 04:37:27;;;;;;;6.43;2.10;;;3.60;99.90;;;;;;5071303;28;20390;-57
2022/02/05 04:40:10;;;;;;;6.65;2.30;;;4.30;99.90;;;;;;5070057;28;20975;-57
2022/02/05 04:42:58;;;;;;;6.68;2.13;;;5.00;99.90;;;;;;5071142;28;20392;-57
2022/02/05 05:01:21;;;;;;;8.35;1.90;;;4.00;99.90;;;;;;5070585;28;20440;-57
2022/02/05 05:09:10;;;;;;;6.57;2.25;;;3.90;99.90;;;;;;5070092;28;20427;-58
2022/02/05 05:21:40;;;;;;;7.20;2.28;;;5.80;99.90;;;;;;5070409;28;20387;-58
2022/02/05 05:24:05;;;;;;;8.07;2.50;;;4.00;99.90;;;;;;5069581;28;20630;-57
2022/02/05 05:26:31;;;;;;;10.80;2.80;;;4.00;99.90;;;;;;5070288;28;20388;-57
2022/02/05 05:28:57;;;;;;;9.45;2.70;;;3.90;99.90;;;;;;5069676;28;20906;-58
2022/02/05 05:31:22;;;;;;;6.83;2.60;;;3.90;99.90;;;;;;5070057;28;20443;-58
2022/02/05 05:33:48;;;;;;;7.78;2.80;;;4.00;99.90;;;;;;5069027;28;20383;-58
2022/02/05 05:36:13;;;;;;;6.30;2.50;;;4.00;99.90;;;;;;5075964;28;20378;-58
2022/02/05 05:38:39;;;;;;;10.32;2.50;;;3.90;99.90;;;;;;5089711;28;20406;-58
2022/02/05 05:41:05;;;;;;;7.83;2.63;;;3.90;99.90;;;;;;5088893;28;21019;-57
2022/02/05 05:43:53;;;;;;;8.57;2.70;;;3.90;99.90;;;;;;5089443;28;20870;-57
2022/02/05 05:46:31;;;;;;;6.78;2.55;;;3.90;99.90;;;;;;5087869;28;20405;-57
2022/02/05 05:49:14;;;;;;;6.32;2.40;;;5.60;99.90;;;;;;5086724;28;20413;-58
2022/02/05 05:51:41;;;;;;;6.85;2.40;;;3.90;99.90;;;;;;5087334;28;20378;-57
2022/02/05 05:54:07;;;;;;;6.32;2.53;;;3.90;99.90;;;;;;5088844;28;20521;-57
2022/02/05 05:56:34;;;;;;;8.10;2.77;;;3.90;99.90;;;;;;5087143;28;20928;-57
2022/02/05 05:59:01;;;;;;;6.30;2.30;;;3.90;99.90;;;;;;5088706;28;20494;-57
2022/02/05 06:01:27;;;;;;;8.10;2.70;;;5.40;99.90;;;;;;5089530;28;20855;-57
2022/02/05 06:03:52;;;;;;;10.23;2.60;;;4.00;99.90;;;;;;5088718;28;20410;-57
2022/02/05 06:06:18;;;;;;;13.45;2.60;;;3.90;99.90;;;;;;5089552;28;20463;-57
2022/02/05 06:08:44;;;;;;;6.63;2.57;;;5.00;99.90;;;;;;5089134;28;20392;-57
2022/02/05 06:11:09;;;;;;;8.97;2.70;;;4.90;99.90;;;;;;5088608;28;20378;-57
2022/02/05 06:13:36;;;;;;;7.05;2.80;;;3.50;99.90;;;;;;5089402;28;20464;-57
2022/02/05 06:16:05;;;;;;;6.65;2.67;;;3.50;99.90;;;;;;5088404;28;20775;-57
2022/02/05 06:18:31;;;;;;;8.50;2.90;;;3.50;99.90;;;;;;5087361;28;20761;-57
2022/02/05 06:20:57;;;;;;;6.37;2.70;;;3.60;99.90;;;;;;5088285;28;20435;-57
2022/02/05 06:23:23;;;;;;;8.13;2.80;;;3.50;99.90;;;;;;5088059;28;20442;-57
2022/02/05 06:25:49;;;;;;;7.65;2.45;;;5.10;99.90;;;;;;5088247;28;20463;-57
2022/02/05 06:28:15;;;;;;;7.43;2.60;;;3.40;99.90;;;;;;5089377;28;20378;-57
2022/02/05 06:30:44;;;;;;;8.73;3.00;;;3.40;99.90;;;;;;5082476;28;20480;-57
2022/02/05 06:33:10;;;;;;;6.05;2.60;;;3.40;99.90;;;;;;5084796;28;20402;-57
2022/02/05 06:35:36;;;;;;;8.15;3.10;;;5.20;99.90;;;;;;5094938;28;20787;-57
2022/02/05 06:38:02;;;;;;;10.47;2.93;;;3.40;99.90;;;;;;5097787;28;20372;-57
2022/02/05 06:40:28;;;;;;;6.45;2.50;;;3.50;99.90;;;;;;5100569;28;20388;-57
2022/02/05 06:42:53;;;;;;;8.80;2.90;;;3.60;99.90;;;;;;5108961;28;20377;-57
2022/02/05 06:45:20;;;;;;;7.90;3.13;;;4.50;99.90;;;;;;5092423;28;20396;-57
2022/02/05 06:47:46;;;;;;;8.32;2.80;;;4.70;99.90;;;;;;5101881;28;20429;-58
2022/02/05 06:50:13;;;;;;;7.70;2.50;;;3.70;99.90;;;;;;5099458;28;20419;-57
2022/02/05 06:52:41;;;;;;;8.02;2.83;;;3.80;99.90;;;;;;5109558;28;20399;-57
2022/02/05 06:55:10;;;;;;;7.93;2.78;;;4.80;99.90;;;;;;5090199;28;20439;-57
2022/02/05 06:57:35;;;;;;;6.95;2.75;;;3.90;99.90;;;;;;5091253;28;20894;-57
2022/02/05 07:00:03;;;;;;;8.27;2.78;;;3.90;99.90;;;;;;5105805;28;20423;-57
2022/02/05 07:02:28;;;;;;;7.63;2.90;;;4.00;99.90;;;;;;5101615;28;20385;-57
2022/02/05 07:04:54;;;;;;;7.60;2.50;;;4.30;99.90;;;;;;5083322;28;20394;-58
2022/02/05 07:07:20;;;;;;;9.23;3.07;;;4.80;99.90;;;;;;5098360;28;20403;-57
2022/02/05 07:09:45;;;;;;;8.73;2.95;;;3.90;99.90;;;;;;5090240;28;20763;-58
2022/02/05 07:12:12;;;;;;;10.47;2.97;;;3.70;99.90;;;;;;5098840;28;20376;-57
2022/02/05 07:14:55;;;;;;;7.93;3.00;;;3.80;99.90;;;;;;5095343;28;20392;-57
2022/02/05 07:17:35;;;;;;;8.20;3.47;;;3.80;99.90;;;;;;5097503;28;20402;-57
2022/02/05 07:22:32;;;;;;;8.13;2.87;;;3.90;99.90;;;;;;5098525;28;20741;-55
2022/02/05 07:30:20;;;;;;;6.70;2.80;;;4.30;99.90;;;;;;5099598;28;20864;-57
2022/02/05 07:32:45;;;;;;;11.10;3.50;;;4.10;99.90;;;;;;5100091;28;20374;-57
2022/02/05 07:35:11;;;;;;;8.43;3.10;;;4.30;99.90;;;;;;5098819;28;20858;-58
2022/02/05 07:37:37;;;;;;;8.65;2.88;;;4.30;99.90;;;;;;5097627;28;20386;-57
2022/02/05 07:40:03;;;;;;;7.10;3.07;;;5.30;99.90;;;;;;5100480;28;20408;-57
2022/02/05 07:42:29;;;;;;;8.60;2.78;;;4.40;99.90;;;;;;5110033;28;20444;-57
2022/02/05 07:44:55;;;;;;;8.97;2.77;;;4.60;99.90;;;;;;5100504;28;20469;-57
2022/02/05 07:47:22;;;;;;;7.93;2.55;;;4.60;99.90;;;;;;5091656;28;20394;-57
2022/02/05 07:49:48;;;;;;;6.95;2.70;;;4.70;99.90;;;;;;5103518;28;20390;-58
2022/02/05 07:52:14;;;;;;;7.72;2.67;;;6.10;99.90;;;;;;5107445;28;20382;-58
2022/02/05 07:54:40;;;;;;;8.53;3.27;;;4.80;99.90;;;;;;5100396;28;20437;-56
2022/02/05 07:57:06;;;;;;;9.07;2.92;;;4.80;99.90;;;;;;5111484;28;20376;-57
2022/02/05 07:59:32;;;;;;;6.43;2.30;;;4.80;99.90;;;;;;5096659;28;20497;-58
2022/02/05 08:01:58;;;;;;;8.20;3.03;;;4.90;99.90;;;;;;5107894;28;20464;-58
2022/02/05 08:04:23;;;;;;;8.88;3.00;;;4.90;99.90;;;;;;5098317;28;20384;-57
2022/02/05 08:06:50;;;;;;;7.57;2.70;;;5.00;99.90;;;;;;5101529;28;20374;-58
2022/02/05 08:10:04;;;;;;;6.78;2.65;;;6.40;99.90;;;;;;5101688;28;20384;-56
2022/02/05 08:12:07;;;;;;;7.57;2.75;;;5.30;99.90;;;;;;5096478;28;20388;-56
2022/02/05 08:14:36;;;;;;;7.15;2.60;;;5.50;99.90;;;;;;5093504;28;20394;-56
2022/02/05 08:17:15;;;;;;;8.65;2.72;;;5.50;99.90;;;;;;5090455;28;20402;-56
2022/02/05 08:19:41;;;;;;;7.68;2.40;;;5.90;99.90;;;;;;5091850;28;20409;-56
2022/02/05 08:22:07;;;;;;;10.07;2.80;;;6.50;99.90;;;;;;5089910;28;20459;-56
2022/02/05 08:24:33;;;;;;;9.23;2.95;;;7.00;99.90;;;;;;5090040;28;20425;-56
2022/02/05 08:26:58;;;;;;;7.60;2.60;;;6.80;99.90;;;;;;5090899;28;20402;-56
2022/02/05 08:29:24;;;;;;;7.97;2.60;;;6.50;99.90;;;;;;5091607;28;20382;-56
2022/02/05 08:31:50;;;;;;;9.55;2.50;;;7.10;99.90;;;;;;5090669;28;20440;-56
2022/02/05 08:34:19;;;;;;;6.90;2.67;;;7.80;99.90;;;;;;5091532;28;20386;-56
2022/02/05 08:36:46;;;;;;;9.50;2.20;;;8.50;99.90;;;;;;5090851;28;20954;-58
2022/02/05 08:39:14;;;;;;;9.13;2.25;;;9.10;99.90;;;;;;5090327;28;20421;-58
2022/02/05 08:41:40;;;;;;;8.33;2.10;;;9.00;99.90;;;;;;5090853;28;20882;-56
2022/02/05 08:44:06;;;;;;;8.95;2.10;;;8.60;99.90;;;;;;5089627;28;20446;-56
2022/02/05 08:46:32;;;;;;;6.93;2.30;;;;;;;;;;5090745;28;20469;-57
2022/02/05 08:48:58;;;;;;;6.53;2.10;;;10.40;99.90;;;;;;5089840;28;20742;-56
2022/02/05 08:51:24;;;;;;;6.22;2.55;;;10.30;99.90;;;;;;5089469;28;20397;-56
2022/02/05 08:53:50;;;;;;;8.63;2.80;;;10.00;99.90;;;;;;5088144;28;20449;-57
2022/02/05 08:56:16;;;;;;;7.70;2.60;;;10.10;99.90;;;;;;5090803;28;20415;-56
2022/02/05 08:58:41;;;;;;;7.70;2.53;;;10.20;99.90;;;;;;5090811;28;20415;-55
2022/02/05 09:03:41;;;;;;;7.25;2.08;;;9.20;99.90;;;;;;5086227;28;20727;-58
2022/02/05 09:06:07;;;;;;;8.95;2.00;;;9.00;99.90;;;;;;5069674;28;20918;-55
2022/02/05 09:08:39;;;;;;;6.85;2.20;;;8.40;99.90;;;;;;5077665;28;20386;-55
2022/02/05 09:11:27;;;;;;;8.00;2.10;;;8.50;99.90;;;;;;5089700;28;20917;-58
2022/02/05 09:14:09;;;;;;;6.30;1.90;;;9.40;99.90;;;;;;5090066;28;20496;-57
2022/02/05 09:16:35;;;;;;;8.95;2.20;;;9.40;99.90;;;;;;5084525;28;20460;-56
2022/02/05 09:19:01;;;;;;;8.55;2.30;;;9.00;99.90;;;;;;5084826;28;20422;-56
2022/02/05 09:21:29;;;;;;;7.90;1.73;;;9.00;99.90;;;;;;5089974;28;20389;-56
2022/02/05 09:23:58;;;;;;;6.57;1.90;;;9.50;99.90;;;;;;5087889;28;20782;-59
2022/02/05 09:26:25;;;;;;;7.05;2.30;;;9.80;99.90;;;;;;5086160;28;20490;-59
2022/02/05 09:28:52;;;;;;;8.95;2.35;;;10.40;99.90;;;;;;5083600;28;20390;-57
2022/02/05 09:31:31;;;;;;;6.72;2.00;;;10.70;99.90;;;;;;5089941;28;20453;-57
2022/02/05 09:33:57;;;;;;;8.32;2.60;;;11.40;99.90;;;;;;5085638;28;20484;-57
2022/02/05 09:36:26;;;;;;;6.10;2.67;;;11.30;99.90;;;;;;5089841;28;20460;-57
2022/02/05 09:38:55;;;;;;;6.72;2.78;;;11.30;99.90;;;;;;5088693;28;20424;-57
2022/02/05 09:41:22;;;;;;;5.50;2.40;;;11.00;99.90;;;;;;5089490;28;20378;-57
2022/02/05 09:43:48;;;;;;;8.43;2.60;;;11.10;99.90;;;;;;5088105;28;20416;-57
2022/02/05 09:46:15;;;;;;;11.27;2.72;;;10.30;99.90;;;;;;5088922;28;20394;-57
2022/02/05 09:48:44;;;;;;;7.22;2.40;;;10.90;99.90;;;;;;5089667;28;20386;-57
2022/02/05 09:51:17;;;;;;;7.70;2.67;;;10.50;99.90;;;;;;5089046;28;20374;-57
2022/02/05 09:53:50;;;;;;;6.10;2.03;;;10.20;99.90;;;;;;5087841;28;20471;-57
2022/02/05 09:56:17;;;;;;;6.57;2.50;;;10.10;99.90;;;;;;5087035;28;20395;-57
2022/02/05 09:58:43;;;;;;;8.88;2.20;;;10.50;99.90;;;;;;5079153;28;20419;-57
2022/02/05 10:01:34;;;;;;;9.13;2.10;;;10.40;99.90;;;;;;5086637;28;20442;-57
2022/02/05 10:03:57;;;;;;;5.80;2.70;;;11.20;99.90;;;;;;5081328;28;20380;-57
2022/02/05 10:06:39;;;;;;;10.80;2.80;;;11.90;99.90;;;;;;5081758;28;20747;-57
2022/02/05 10:09:09;;;;;;;8.75;3.70;;;12.60;99.90;;;;;;5084496;28;20455;-57
2022/02/05 10:11:56;;;;;;;7.33;3.70;;;12.30;99.90;;;;;;5089115;28;20674;-57
2022/02/05 10:14:49;;;;;;;7.00;3.63;;;11.80;99.90;;;;;;5085886;28;20481;-57
2022/02/05 10:17:14;;;;;;;7.33;3.40;;;11.60;99.90;;;;;;5087904;28;20397;-57
2022/02/05 10:19:49;;;;;;;7.07;3.70;;;12.00;99.90;;;;;;5085487;28;20418;-57
2022/02/05 10:22:15;;;;;;;7.95;3.60;;;11.80;99.90;;;;;;5087748;28;20378;-57
2022/02/05 10:24:55;;;;;;;8.55;4.13;;;11.30;99.90;;;;;;5088788;28;20385;-57
2022/02/05 10:27:39;;;;;;;7.70;3.30;;;10.40;99.90;;;;;;5086615;28;20405;-57
2022/02/05 10:30:21;;;;;;;6.97;2.65;;;10.30;99.90;;;;;;5084842;28;20398;-57
2022/02/05 10:32:51;;;;;;;9.07;2.70;;;10.70;99.90;;;;;;5088021;28;20397;-57
2022/02/05 10:37:50;;;;;;;7.82;2.70;;;9.70;99.90;;;;;;5084952;28;20396;-57
2022/02/05 10:40:22;;;;;;;8.93;1.73;;;9.50;99.90;;;;;;5082103;28;20406;-57
2022/02/05 10:43:06;;;;;;;10.60;2.00;;;8.90;99.90;;;;;;5088526;28;20736;-57
2022/02/05 10:45:44;;;;;;;7.40;2.50;;;9.30;99.90;;;;;;5087908;28;20628;-57
2022/02/05 10:48:13;;;;;;;6.70;2.30;;;10.10;99.90;;;;;;5086651;28;20453;-57
2022/02/05 10:50:38;;;;;;;8.40;2.20;;;10.20;99.90;;;;;;5082766;28;20494;-57
2022/02/05 10:53:10;;;;;;;7.90;2.20;;;10.60;99.90;;;;;;5086532;28;20394;-58
2022/02/05 10:55:55;;;;;;;6.40;2.03;;;11.00;99.90;;;;;;5088589;28;20743;-57
2022/02/05 10:58:35;;;;;;;7.25;2.38;;;11.40;99.90;;;;;;5087749;28;20382;-57
2022/02/05 11:07:11;;;;;;;7.07;2.30;;;11.50;99.90;;;;;;5088668;28;20455;-58
2022/02/05 11:09:43;;;;;;;7.05;2.10;;;11.40;99.90;;;;;;5088324;28;20377;-57
2022/02/05 11:20:19;;;;;;;6.35;2.50;;;11.70;97.80;;;;;;5062245;28;20500;-57
2022/02/05 11:23:05;;;;;;;6.38;2.42;;;11.20;98.00;;;;;;5090007;28;20523;-57
2022/02/05 11:25:34;;;;;;;7.80;2.60;;;11.20;98.60;;;;;;5092847;28;20371;-57
2022/02/05 11:28:00;;;;;;;8.18;2.60;;;11.10;99.90;;;;;;5091479;28;20378;-57
2022/02/05 11:30:43;;;;;;;5.40;2.30;;;11.10;99.90;;;;;;5092532;28;20370;-57
2022/02/05 11:33:29;;;;;;;10.15;2.38;;;10.80;99.10;;;;;;5088627;28;20910;-57
2022/02/05 11:38:36;;;;;;;6.68;2.50;;;11.00;99.90;;;;;;5089981;28;20466;-57
2022/02/05 11:41:03;;;;;;;8.43;2.83;;;11.20;98.70;;;;;;5091105;28;20602;-57
2022/02/05 11:43:28;;;;;;;5.22;2.13;;;11.00;99.50;;;;;;5091811;28;20387;-57
2022/02/05 11:46:08;;;;;;;6.45;2.15;;;10.70;99.70;;;;;;5091238;28;20393;-57
2022/02/05 11:48:41;;;;;;;4.72;1.85;;;10.30;99.50;;;;;;5085058;28;20429;-57
2022/02/05 11:51:22;;;;;;;7.20;2.50;;;10.40;99.80;;;;;;5089715;28;20382;-57
2022/02/05 11:53:57;;;;;;;5.90;2.50;;;10.30;99.40;;;;;;5090666;28;20402;-57
2022/02/05 11:57:07;;;;;;;6.57;2.30;;;10.50;98.90;;;;;;5091783;28;20435;-57
2022/02/05 12:00:02;;;;;;;6.38;2.15;;;10.50;99.60;;;;;;5089304;28;20930;-57
2022/02/05 12:02:38;;;;;;;4.10;1.85;;;10.40;97.50;;;;;;5091330;28;20459;-57
2022/02/05 12:05:11;;;;;;;6.63;1.90;;;10.50;98.50;;;;;;5090865;28;20375;-57
2022/02/05 12:07:37;;;;;;;5.00;2.10;;;10.40;97.40;;;;;;5089395;28;20782;-57
2022/02/05 12:10:34;;;;;;;6.40;2.20;;;10.20;96.70;;;;;;5090357;28;20386;-57
2022/02/05 12:13:21;;;;;;;4.93;1.83;;;10.30;98.10;;;;;;5089127;28;20705;-57
2022/02/05 12:16:10;;;;;;;6.78;2.30;;;10.70;97.80;;;;;;5090533;28;20398;-57
2022/02/05 12:18:55;;;;;;;6.20;2.10;;;10.70;99.00;;;;;;5079085;28;20430;-57
2022/02/05 12:21:28;;;;;;;4.78;1.80;;;10.60;98.90;;;;;;5089762;28;20439;-57
2022/02/05 12:26:30;;;;;;;6.63;2.30;;;10.90;98.90;;;;;;5087625;28;20396;-57
2022/02/05 12:29:00;;;;;;;7.87;3.20;;;10.90;98.10;;;;;;5085050;28;20983;-57
2022/02/05 12:31:26;;;;;;;7.20;2.60;;;10.60;98.30;;;;;;5091420;28;20844;-57
2022/02/05 12:33:55;;;;;;;10.05;2.85;;;10.40;98.10;;;;;;5080399;28;20533;-57
2022/02/05 12:36:34;;;;;;;7.68;2.13;;;10.20;99.00;;;;;;5107716;28;21107;-57
2022/02/05 12:39:02;;;;;;;6.47;2.55;;;9.70;99.90;;;;;;5110040;28;20520;-57
2022/02/05 12:41:30;;;;;;;6.03;2.40;;;9.30;99.60;;;;;;5092369;28;20399;-57
2022/02/05 12:44:01;;;;;;;9.50;2.60;;;9.10;99.90;;;;;;5085177;28;20402;-57
2022/02/05 12:46:35;;;;;;;6.43;1.98;;;9.20;99.90;;;;;;5090477;28;20455;-57
2022/02/05 12:49:06;;;;;;;6.95;2.45;;;9.20;99.90;;;;;;5082451;28;20435;-57
2022/02/05 12:51:32;;;;;;;6.55;1.90;;;9.20;99.90;;;;;;5092847;28;20755;-57
2022/02/05 12:54:13;;;;;;;5.07;1.70;;;9.20;99.90;;;;;;5082622;28;20464;-57
2022/02/05 12:56:40;;;;;;;6.10;1.83;;;8.90;99.90;;;;;;5070118;28;20380;-57
2022/02/05 12:59:11;;;;;;;5.22;1.90;;;8.70;99.90;;;;;;5068962;28;20419;-57
2022/02/05 13:01:48;;;;;;;5.43;1.50;;;8.60;99.90;;;;;;5070651;28;20411;-57
2022/02/05 13:04:16;;;;;;;6.82;1.83;;;9.00;99.90;;;;;;5077824;28;20490;-57
2022/02/05 13:06:43;;;;;;;6.15;2.10;;;9.10;99.90;;;;;;5091718;28;20393;-57
2022/02/05 13:09:23;;;;;;;7.93;1.92;;;9.10;99.90;;;;;;5089754;28;20720;-57
2022/02/05 13:11:59;;;;;;;5.28;1.60;;;8.60;99.90;;;;;;5088381;28;20886;-57
2022/02/05 13:14:50;;;;;;;4.85;1.50;;;9.00;99.90;;;;;;5090520;28;20394;-57
2022/02/05 13:17:47;;;;;;;5.70;1.80;;;9.00;99.90;;;;;;5088970;28;20396;-57
2022/02/05 13:26:13;;;;;;;5.50;1.50;;;9.20;99.90;;;;;;5080186;28;20390;-57
2022/02/05 13:34:15;;;;;;;6.47;1.70;;;9.40;99.90;;;;;;5088084;28;20903;-57
2022/02/05 13:36:55;;;;;;;6.65;1.88;;;9.50;99.90;;;;;;5087540;28;20386;-57
2022/02/05 13:39:59;;;;;;;5.20;1.70;;;9.70;99.90;;;;;;5085493;28;20418;-57
2022/02/05 13:42:20;;;;;;;5.63;2.00;;;9.80;99.90;;;;;;5085244;28;20428;-57
2022/02/05 13:44:59;;;;;;;8.10;2.20;;;9.80;99.90;;;;;;5082806;28;20388;-57
2022/02/05 13:47:36;;;;;;;5.40;1.60;;;9.80;99.90;;;;;;5069306;28;20419;-57
2022/02/05 13:50:06;;;;;;;4.40;1.70;;;9.70;99.90;;;;;;5074628;28;20456;-57
2022/02/05 13:52:37;;;;;;;10.53;2.00;;;9.70;99.90;;;;;;5075960;28;20411;-57
2022/02/05 13:55:26;;;;;;;4.65;1.35;;;9.60;99.90;;;;;;5081811;28;20389;-57
2022/02/05 13:58:08;;;;;;;6.57;1.60;;;9.50;99.90;;;;;;5075647;28;20398;-57
2022/02/05 14:00:54;;;;;;;6.20;1.60;;;9.60;99.90;;;;;;5081408;28;20415;-57
2022/02/05 14:03:32;;;;;;;6.25;1.90;;;9.70;99.80;;;;;;5077206;28;20963;-57
2022/02/05 14:06:02;;;;;;;5.80;1.70;;;9.50;98.70;;;;;;5086532;28;20405;-57
2022/02/05 14:08:45;;;;;;;4.47;1.60;;;9.50;99.60;;;;;;5089745;28;20410;-57
2022/02/05 14:11:12;;;;;;;6.10;1.70;;;9.20;98.80;;;;;;5087034;28;20413;-57
2022/02/05 14:13:39;;;;;;;6.47;1.70;;;9.10;99.90;;;;;;5083670;28;20399;-57
2022/02/05 14:16:06;;;;;;;5.40;1.70;;;9.10;98.80;;;;;;5105880;28;20397;-58
2022/02/05 14:18:52;;;;;;;6.00;1.80;;;10.70;99.60;;;;;;5090699;28;20410;-57
2022/02/05 14:21:34;;;;;;;5.05;1.60;;;9.20;99.10;;;;;;5091240;28;20487;-56
2022/02/05 14:24:02;;;;;;;7.45;1.88;;;9.20;98.60;;;;;;5091408;28;20495;-56
2022/02/05 14:26:33;;;;;;;6.03;1.60;;;9.00;99.20;;;;;;5067615;28;20845;-56
2022/02/05 14:29:02;;;;;;;6.78;2.10;;;8.70;99.20;;;;;;5069408;28;20392;-56
2022/02/05 14:41:53;;;;;;;6.57;1.80;;;8.80;99.40;;;;;;5075754;28;20485;-56
2022/02/05 14:44:18;;;;;;;5.43;1.80;;;8.90;99.90;;;;;;5080178;28;20396;-56
2022/02/05 14:46:44;;;;;;;5.38;1.60;;;9.10;99.90;;;;;;5077436;28;20439;-56
2022/02/05 14:49:10;;;;;;;7.50;1.83;;;9.10;99.50;;;;;;5084950;28;20875;-56
2022/02/05 14:51:36;;;;;;;7.53;1.55;;;9.10;98.90;;;;;;5082515;28;20852;-56
2022/02/05 14:54:02;;;;;;;5.38;1.33;;;9.00;98.80;;;;;;5082365;28;20736;-56
2022/02/05 14:56:28;;;;;;;5.50;1.30;;;9.00;99.90;;;;;;5085146;28;20464;-55
2022/02/05 14:58:54;;;;;;;7.30;1.60;;;8.70;99.40;;;;;;5080650;28;20416;-55
2022/02/05 15:01:23;;;;;;;5.07;1.30;;;8.70;99.60;;;;;;5081808;28;20412;-55
2022/02/05 15:03:49;;;;;;;5.90;1.67;;;8.40;99.10;;;;;;5087670;28;20867;-55
2022/02/05 15:06:20;;;;;;;4.93;1.60;;;8.20;99.70;;;;;;5076591;28;20502;-55
2022/02/05 15:08:47;;;;;;;4.78;1.30;;;8.10;99.80;;;;;;5078848;28;20493;-55
2022/02/05 15:11:16;;;;;;;4.70;1.23;;;8.10;99.90;;;;;;5072864;28;20410;-56
2022/02/05 15:13:43;;;;;;;5.05;1.33;;;8.10;99.90;;;;;;5075723;28;20374;-56
2022/02/05 15:16:10;;;;;;;7.20;1.80;;;8.10;99.90;;;;;;5081071;28;20402;-56
2022/02/05 15:18:41;;;;;;;5.40;1.45;;;8.10;99.90;;;;;;5092423;28;20493;-56
2022/02/05 15:21:08;;;;;;;6.00;1.63;;;8.20;99.90;;;;;;5091630;28;20382;-55
2022/02/05 15:23:34;;;;;;;6.10;1.40;;;8.10;99.90;;;;;;5092599;28;20382;-56
2022/02/05 15:26:02;;;;;;;6.28;1.60;;;7.90;99.90;;;;;;5092180;28;20378;-57
2022/02/05 15:28:28;;;;;;;5.43;1.35;;;7.30;99.90;;;;;;5092814;28;20381;-56
2022/02/05 15:30:54;;;;;;;5.95;1.42;;;7.90;99.90;;;;;;5092554;28;20523;-56
2022/02/05 15:33:21;;;;;;;4.60;1.20;;;7.90;99.90;;;;;;5091594;28;20374;-56
2022/02/05 15:35:48;;;;;;;8.57;1.80;;;7.90;99.90;;;;;;5091532;28;20373;-56
2022/02/05 15:38:19;;;;;;;4.90;1.30;;;9.00;99.90;;;;;;5091878;28;20477;-56
2022/02/05 15:43:52;;;;;;;8.02;1.80;;;7.70;99.90;;;;;;5092553;28;20882;-56
2022/02/05 15:46:18;;;;;;;9.55;1.60;;;7.70;99.90;;;;;;5091451;28;20520;-56
2022/02/05 15:48:44;;;;;;;5.70;1.27;;;7.90;99.90;;;;;;5092371;28;20428;-56
2022/02/05 15:51:09;;;;;;;6.00;1.27;;;7.40;99.90;;;;;;5091341;28;20799;-56
2022/02/05 15:53:41;;;;;;;5.15;1.80;;;7.40;99.90;;;;;;5092278;28;20386;-56
2022/02/05 15:56:11;;;;;;;6.03;1.20;;;7.50;99.90;;;;;;5091662;28;20370;-56
2022/02/05 15:58:46;;;;;;;6.78;1.20;;;7.60;99.90;;;;;;5092024;28;20413;-56
2022/02/05 16:01:12;;;;;;;6.40;1.65;;;7.50;99.90;;;;;;5091347;28;20390;-56
2022/02/05 16:03:37;;;;;;;6.60;1.70;;;7.40;99.90;;;;;;5090786;28;20362;-56
2022/02/05 16:06:03;;;;;;;5.63;1.40;;;7.20;99.90;;;;;;5091175;28;20378;-56
2022/02/05 16:08:28;;;;;;;10.50;4.60;;;7.20;99.90;;;;;;5090636;28;20477;-56
2022/02/05 16:10:54;;;;;;;8.63;2.33;;;7.10;99.90;;;;;;5091663;28;20406;-56
2022/02/05 16:13:20;;;;;;;6.50;1.10;;;7.00;99.90;;;;;;5090982;28;20378;-56
2022/02/05 16:15:45;;;;;;;6.95;1.85;;;7.00;99.90;;;;;;5091987;28;20464;-56
2022/02/05 16:18:11;;;;;;;9.13;3.70;;;7.00;99.90;;;;;;5090529;28;20498;-57
2022/02/05 16:20:36;;;;;;;5.97;1.10;;;6.80;99.90;;;;;;5090338;28;20920;-57